Time;durP1;ratioP1;P1;durP2;ratioP2;P2;SDS_P1;SDS_P2;PMS_P1;PMS_P2;Temp;Humidity;BMP_temperature;BMP_pressure;BME280_temperature;BME280_humidity;BME280_pressure;Samples;Min_cycle;Max_cycle;Signal;HPM_P1;HPM_P2
2022/04/29 00:01:41;;;;;;;11.27;7.90;;;;;;;12.08;59.18;95176.31;4143559;28;20056;-53
2022/04/29 00:03:43;;;;;;;10.05;7.93;;;;;;;12.03;59.37;95169.91;4138007;28;20102;-58
2022/04/29 00:05:46;;;;;;;9.98;7.80;;;;;;;11.98;59.65;95166.91;4135196;28;20116;-53
2022/04/29 00:07:48;;;;;;;10.40;8.32;;;;;;;12.00;59.57;95172.81;4141506;28;20229;-59
2022/04/29 00:09:49;;;;;;;9.43;7.78;;;;;;;12.04;59.55;95166.28;4142913;28;20054;-55
2022/04/29 00:11:52;;;;;;;11.10;8.35;;;;;;;12.09;59.68;95169.28;4143522;28;20057;-54
2022/04/29 00:13:54;;;;;;;9.15;7.32;;;;;;;12.12;59.22;95166.31;4143014;28;20518;-54
2022/04/29 00:15:56;;;;;;;13.05;8.27;;;;;;;12.05;59.28;95166.13;4143321;28;20443;-53
2022/04/29 00:17:58;;;;;;;9.75;7.60;;;;;;;11.97;59.46;95166.09;4143324;28;20119;-55
2022/04/29 00:19:59;;;;;;;9.90;8.45;;;;;;;11.94;59.85;95163.78;4143406;28;20050;-56
2022/04/29 00:22:01;;;;;;;9.73;7.90;;;;;;;11.93;59.71;95162.13;4130417;28;20058;-52
2022/04/29 00:24:03;;;;;;;14.50;8.98;;;;;;;11.90;59.75;95161.63;4137580;28;20045;-55
2022/04/29 00:26:05;;;;;;;9.93;7.47;;;;;;;11.91;59.69;95150.97;4143265;28;20054;-53
2022/04/29 00:28:07;;;;;;;11.43;8.35;;;;;;;11.93;59.53;95150.81;4143519;28;20054;-55
2022/04/29 00:30:11;;;;;;;10.80;8.10;;;;;;;11.94;59.47;95158.53;4142993;28;20053;-54
2022/04/29 00:32:13;;;;;;;10.65;8.35;;;;;;;11.89;59.78;95158.16;4143220;28;20759;-52
2022/04/29 00:34:14;;;;;;;10.60;7.35;;;;;;;11.99;59.17;95156.25;4142736;28;20046;-53
2022/04/29 00:36:16;;;;;;;10.57;8.38;;;;;;;11.87;59.45;95163.56;4143318;28;20494;-52
2022/04/29 00:38:18;;;;;;;9.93;8.35;;;;;;;11.86;59.77;95161.06;4141573;28;20474;-53
2022/04/29 00:40:23;;;;;;;11.15;8.25;;;;;;;11.88;59.65;95156.53;4142620;28;20045;-51
2022/04/29 00:42:25;;;;;;;11.85;8.38;;;;;;;11.96;59.56;95155.72;4143172;28;20046;-54
2022/04/29 00:44:26;;;;;;;11.32;7.90;;;;;;;12.02;59.21;95158.59;4142872;28;20045;-54
2022/04/29 00:46:29;;;;;;;11.02;8.82;;;;;;;12.00;59.26;95149.19;4143321;28;20053;-50
2022/04/29 00:48:31;;;;;;;10.85;8.60;;;;;;;12.03;58.67;95148.91;4141110;28;20473;-50
2022/04/29 00:50:33;;;;;;;12.13;8.70;;;;;;;12.00;59.06;95150.03;4142769;28;20459;-51
2022/04/29 00:52:38;;;;;;;14.10;8.40;;;;;;;11.91;59.27;95139.63;4142771;28;20057;-53
2022/04/29 00:54:42;;;;;;;10.50;7.95;;;;;;;11.98;59.23;95138.03;4140702;28;20291;-53
2022/04/29 00:56:45;;;;;;;11.18;8.35;;;;;;;12.03;58.62;95138.41;4142668;28;20107;-52
2022/04/29 00:59:04;;;;;;;11.50;8.32;;;;;;;11.96;59.10;95138.19;4141283;28;20422;-53
2022/04/29 01:01:06;;;;;;;10.60;8.35;;;;;;;11.95;58.77;95140.97;4142775;28;20054;-53
2022/04/29 01:03:11;;;;;;;12.43;8.30;;;;;;;11.94;59.04;95139.31;4140210;28;20147;-54
2022/04/29 01:05:17;;;;;;;10.57;8.35;;;;;;;11.93;59.03;95133.25;4138634;28;20077;-53
2022/04/29 01:07:19;;;;;;;12.68;8.70;;;;;;;11.86;59.48;95137.44;4157380;28;20166;-53
2022/04/29 01:09:22;;;;;;;11.60;8.93;;;;;;;11.89;59.16;95131.91;4141220;28;20054;-52
2022/04/29 01:11:25;;;;;;;14.00;8.53;;;;;;;11.96;59.18;95138.19;4142881;28;20399;-55
2022/04/29 01:13:27;;;;;;;12.80;9.33;;;;;;;12.03;58.86;95135.78;4142418;28;20386;-53
2022/04/29 01:15:30;;;;;;;10.63;8.93;;;;;;;12.13;58.67;95131.22;4142840;28;20050;-53
2022/04/29 01:17:37;;;;;;;13.07;9.20;;;;;;;12.18;58.37;95126.31;4142654;28;20050;-54
2022/04/29 01:19:39;;;;;;;13.85;8.45;;;;;;;12.23;58.50;95124.03;4142308;28;20050;-52
2022/04/29 01:21:42;;;;;;;10.95;8.68;;;;;;;12.33;58.28;95128.34;4142589;28;20483;-48
2022/04/29 01:23:44;;;;;;;11.00;8.20;;;;;;;12.32;58.02;95129.31;4139926;28;20390;-54
2022/04/29 01:25:45;;;;;;;11.25;8.23;;;;;;;12.36;57.85;95130.63;4141968;28;20053;-55
2022/04/29 01:27:49;;;;;;;12.68;9.32;;;;;;;12.23;58.31;95131.91;4142661;28;20062;-52
2022/04/29 01:29:58;;;;;;;12.40;9.45;;;;;;;12.25;58.05;95129.13;4142786;28;20050;-53
2022/04/29 01:32:01;;;;;;;12.38;8.95;;;;;;;12.18;58.46;95125.50;4140030;28;20090;-53
2022/04/29 01:34:02;;;;;;;14.65;8.95;;;;;;;11.95;59.03;95127.84;4145373;28;20505;-50
2022/04/29 01:36:05;;;;;;;12.20;8.82;;;;;;;11.83;59.01;95127.25;4142403;28;20054;-50
2022/04/29 01:38:06;;;;;;;13.77;9.45;;;;;;;11.84;59.12;95123.66;4141100;28;20454;-53
2022/04/29 01:40:12;;;;;;;13.40;9.75;;;;;;;11.72;59.84;95125.72;4142564;28;20054;-52
2022/04/29 01:42:14;;;;;;;14.70;8.75;;;;;;;11.72;60.00;95124.91;4142275;28;20288;-52
2022/04/29 01:44:15;;;;;;;14.02;9.88;;;;;;;11.60;60.26;95124.34;4142265;28;20053;-51
2022/04/29 01:46:17;;;;;;;11.85;8.60;;;;;;;11.64;60.17;95128.31;4141652;28;20120;-51
2022/04/29 01:48:19;;;;;;;13.63;9.48;;;;;;;11.47;60.38;95122.94;4141934;28;20053;-49
2022/04/29 01:50:21;;;;;;;13.43;9.82;;;;;;;11.34;61.14;95121.72;4142442;28;20050;-52
2022/04/29 01:52:23;;;;;;;12.00;9.15;;;;;;;11.40;60.98;95126.34;4142980;28;20054;-51
2022/04/29 01:54:24;;;;;;;14.13;9.93;;;;;;;11.46;60.80;95131.81;4140178;28;20486;-51
2022/04/29 01:56:35;;;;;;;12.05;8.70;;;;;;;11.54;60.54;95133.66;4145663;28;20053;-53
2022/04/29 01:58:37;;;;;;;10.88;8.75;;;;;;;11.61;60.19;95128.59;4145793;28;20099;-52
2022/04/29 02:00:39;;;;;;;16.05;7.93;;;;;;;11.73;59.77;95121.31;4145833;28;20398;-50
2022/04/29 02:02:41;;;;;;;14.73;8.82;;;;;;;11.76;59.37;95127.06;4145641;28;20570;-52
2022/04/29 02:04:43;;;;;;;15.43;9.07;;;;;;;11.79;59.52;95131.19;4144115;28;20080;-54
2022/04/29 02:06:45;;;;;;;13.65;9.50;;;;;;;11.63;59.84;95134.53;4141806;28;20427;-53
2022/04/29 02:08:48;;;;;;;11.95;8.52;;;;;;;11.34;61.02;95133.03;4144403;28;20058;-50
2022/04/29 02:10:50;;;;;;;13.18;9.30;;;;;;;11.21;61.36;95138.69;4137150;28;20466;-53
2022/04/29 02:12:53;;;;;;;12.10;9.02;;;;;;;11.26;61.23;95136.41;4142128;28;20136;-51
2022/04/29 02:14:54;;;;;;;12.38;8.90;;;;;;;11.33;61.06;95135.81;4145806;28;20058;-55
2022/04/29 02:16:57;;;;;;;12.27;8.98;;;;;;;11.43;60.96;95132.09;4145438;28;20054;-52
2022/04/29 02:18:59;;;;;;;12.45;8.90;;;;;;;11.57;60.42;95133.38;4145287;28;20515;-51
2022/04/29 02:21:01;;;;;;;14.07;8.60;;;;;;;11.69;60.21;95132.09;4145440;28;20454;-52
2022/04/29 02:23:02;;;;;;;13.35;9.20;;;;;;;11.77;59.94;95139.22;4144328;28;20069;-57
2022/04/29 02:25:05;;;;;;;13.05;9.77;;;;;;;11.73;60.02;95139.69;4145346;28;20049;-54
2022/04/29 02:27:07;;;;;;;11.77;8.68;;;;;;;11.64;60.26;95134.38;4144985;28;20049;-54
2022/04/29 02:29:09;;;;;;;12.55;9.20;;;;;;;11.64;60.57;95139.63;4145204;28;20060;-55
2022/04/29 02:31:10;;;;;;;12.73;8.68;;;;;;;11.65;60.60;95143.06;4145240;28;20152;-51
2022/04/29 02:33:12;;;;;;;10.27;7.82;;;;;;;11.61;60.72;95144.34;4145075;28;20046;-53
2022/04/29 02:35:14;;;;;;;10.05;7.60;;;;;;;11.70;60.54;95140.78;4145106;28;20046;-52
2022/04/29 02:37:16;;;;;;;13.48;8.18;;;;;;;11.68;60.61;95140.97;4160037;28;20083;-54
2022/04/29 02:39:18;;;;;;;13.70;8.80;;;;;;;11.68;60.75;95146.22;4143320;28;20282;-59
2022/04/29 02:41:20;;;;;;;10.57;8.68;;;;;;;11.71;60.94;95142.44;4144845;28;20053;-53
2022/04/29 02:43:22;;;;;;;13.80;8.55;;;;;;;11.66;60.97;95147.34;4144759;28;20131;-53
2022/04/29 02:45:24;;;;;;;12.00;8.95;;;;;;;11.67;60.73;95141.13;4145011;28;20108;-55
2022/04/29 02:47:26;;;;;;;11.57;9.13;;;;;;;11.72;61.14;95144.09;4142765;28;20057;-57
2022/04/29 02:49:29;;;;;;;10.65;8.57;;;;;;;11.74;60.64;95139.50;4133960;28;20057;-52
2022/04/29 02:51:30;;;;;;;10.55;8.05;;;;;;;11.70;60.56;95138.16;4144677;28;20119;-49
2022/04/29 02:53:32;;;;;;;11.88;9.30;;;;;;;11.64;60.72;95144.88;4142821;28;20073;-52
2022/04/29 02:55:34;;;;;;;10.30;7.72;;;;;;;11.63;60.99;95140.59;4144274;28;20116;-52
2022/04/29 02:57:36;;;;;;;12.55;8.35;;;;;;;11.57;61.14;95140.38;4144456;28;20054;-52
2022/04/29 02:59:37;;;;;;;10.57;8.25;;;;;;;11.62;61.31;95143.38;4144675;28;20157;-54
2022/04/29 03:01:39;;;;;;;13.05;7.53;;;;;;;11.58;61.63;95135.00;4144896;28;20054;-50
2022/04/29 03:03:41;;;;;;;13.07;8.73;;;;;;;11.68;61.27;95140.16;4143830;28;20132;-55
2022/04/29 03:05:43;;;;;;;10.68;8.50;;;;;;;11.63;61.25;95142.41;4143313;28;20050;-50
2022/04/29 03:07:45;;;;;;;12.55;8.75;;;;;;;11.65;61.53;95146.50;4141128;28;20061;-52
2022/04/29 03:09:50;;;;;;;11.60;7.90;;;;;;;11.75;61.38;95143.78;4143314;28;20469;-53
2022/04/29 03:11:51;;;;;;;11.70;8.63;;;;;;;11.79;61.25;95142.50;4144731;28;20518;-54
2022/04/29 03:13:53;;;;;;;10.65;7.97;;;;;;;11.77;61.30;95144.47;4144350;28;20133;-52
2022/04/29 03:15:55;;;;;;;12.52;8.30;;;;;;;11.76;61.48;95147.22;4144514;28;20058;-54
2022/04/29 03:20:17;;;;;;;12.13;8.50;;;;;;;11.75;61.42;95145.59;4144115;28;20072;-55
2022/04/29 03:22:19;;;;;;;11.07;7.85;;;;;;;11.74;61.55;95147.38;4144291;28;20054;-50
2022/04/29 03:24:20;;;;;;;13.07;8.88;;;;;;;11.74;61.49;95150.00;4142619;28;20050;-52
2022/04/29 03:26:22;;;;;;;9.98;8.02;;;;;;;11.60;61.97;95150.59;4144320;28;20061;-53
2022/04/29 03:28:24;;;;;;;11.73;8.38;;;;;;;11.63;61.91;95142.41;4144286;28;20133;-53
2022/04/29 03:30:26;;;;;;;10.15;8.38;;;;;;;11.70;61.70;95151.28;4144266;28;20565;-56
2022/04/29 03:32:28;;;;;;;12.40;8.32;;;;;;;11.59;62.03;95147.13;4144317;28;20061;-51
2022/04/29 03:34:30;;;;;;;11.57;7.95;;;;;;;11.63;61.89;95153.72;4143649;28;20053;-52
2022/04/29 03:36:32;;;;;;;12.00;8.20;;;;;;;11.60;62.07;95154.03;4144230;28;20073;-52
2022/04/29 03:38:35;;;;;;;10.52;7.80;;;;;;;11.58;62.42;95149.91;4142541;28;20137;-51
2022/04/29 03:40:37;;;;;;;11.77;7.88;;;;;;;11.50;62.86;95150.69;4143976;28;20061;-54
2022/04/29 03:42:39;;;;;;;13.20;8.77;;;;;;;11.48;62.80;95156.06;4144085;28;20124;-53
2022/04/29 03:44:40;;;;;;;10.20;8.05;;;;;;;11.48;62.84;95147.38;4144057;28;20050;-51
2022/04/29 03:46:42;;;;;;;12.00;8.52;;;;;;;11.47;62.82;95153.63;4143541;28;20054;-55
2022/04/29 03:51:04;;;;;;;10.45;7.45;;;;;;;11.51;62.99;95162.84;4127656;28;20112;-53
2022/04/29 03:53:06;;;;;;;11.07;8.48;;;;;;;11.44;63.35;95167.88;4125764;28;20108;-54
2022/04/29 03:55:08;;;;;;;10.60;7.63;;;;;;;11.44;63.07;95164.41;4142252;28;20054;-51
2022/04/29 03:57:10;;;;;;;12.93;8.57;;;;;;;11.41;63.38;95164.72;4143868;28;20570;-51
2022/04/29 03:59:12;;;;;;;11.13;7.75;;;;;;;11.45;63.29;95163.44;4143606;28;20058;-50
2022/04/29 04:01:14;;;;;;;10.40;8.15;;;;;;;11.33;64.08;95172.53;4143862;28;20054;-51
2022/04/29 04:03:16;;;;;;;10.80;7.60;;;;;;;11.32;64.08;95166.47;4143617;28;20050;-53
2022/04/29 04:05:18;;;;;;;10.45;7.93;;;;;;;11.33;64.41;95168.09;4143404;28;20046;-53
2022/04/29 04:07:21;;;;;;;12.50;8.02;;;;;;;11.40;64.07;95168.31;4141664;28;20053;-54
2022/04/29 04:09:23;;;;;;;11.23;8.02;;;;;;;11.35;64.52;95178.44;4141803;28;20054;-48
2022/04/29 04:11:25;;;;;;;12.10;8.40;;;;;;;11.23;64.63;95177.88;4143741;28;20050;-51
2022/04/29 04:13:27;;;;;;;13.50;9.38;;;;;;;11.28;64.87;95170.34;4143537;28;20434;-50
2022/04/29 04:15:29;;;;;;;14.05;8.68;;;;;;;11.36;64.57;95173.06;4142541;28;20145;-52
2022/04/29 04:17:31;;;;;;;14.80;8.35;;;;;;;11.43;64.23;95178.50;4143688;28;20116;-50
2022/04/29 04:19:35;;;;;;;12.15;8.85;;;;;;;11.51;63.81;95175.09;4143377;28;20061;-53
2022/04/29 04:21:37;;;;;;;15.07;8.90;;;;;;;11.59;63.54;95175.97;4142947;28;20133;-51
2022/04/29 04:23:38;;;;;;;11.68;9.13;;;;;;;11.65;63.56;95172.75;4141996;28;20104;-50
2022/04/29 04:25:40;;;;;;;11.70;8.55;;;;;;;11.68;63.25;95180.34;4143278;28;20094;-54
2022/04/29 04:27:42;;;;;;;10.65;8.27;;;;;;;11.75;62.99;95177.09;4143473;28;20081;-49
2022/04/29 04:29:44;;;;;;;10.00;7.93;;;;;;;11.70;63.09;95174.91;4143107;28;20061;-54
2022/04/29 04:31:47;;;;;;;13.48;8.35;;;;;;;11.69;62.98;95181.97;4143339;28;20124;-49
2022/04/29 04:33:48;;;;;;;16.43;8.67;;;;;;;11.59;63.26;95178.59;4143076;28;20057;-48
2022/04/29 04:35:50;;;;;;;11.18;8.57;;;;;;;11.64;63.52;95178.19;4143046;28;20299;-51
2022/04/29 04:37:52;;;;;;;16.95;10.35;;;;;;;11.60;63.97;95175.03;4141995;28;20053;-53
2022/04/29 04:39:58;;;;;;;12.63;9.05;;;;;;;11.71;63.66;95181.81;4143286;28;20483;-50
2022/04/29 04:41:59;;;;;;;14.50;8.98;;;;;;;11.79;63.17;95181.88;4142576;28;20062;-52
2022/04/29 04:44:01;;;;;;;12.20;8.10;;;;;;;11.76;63.28;95176.09;4142945;28;20066;-50
2022/04/29 04:46:05;;;;;;;13.68;9.25;;;;;;;11.77;63.69;95180.41;4143378;28;20133;-51
2022/04/29 04:48:07;;;;;;;13.48;9.57;;;;;;;11.79;63.65;95181.88;4134984;28;20089;-54
2022/04/29 04:50:10;;;;;;;12.23;9.07;;;;;;;11.83;63.55;95180.59;4126920;28;20149;-53
2022/04/29 04:52:12;;;;;;;14.90;9.75;;;;;;;11.81;63.94;95192.22;4126594;28;20050;-52
2022/04/29 04:54:14;;;;;;;13.63;10.63;;;;;;;11.79;64.19;95176.63;4133546;28;20141;-51
2022/04/29 04:56:16;;;;;;;16.02;10.63;;;;;;;11.77;64.59;95175.16;4141661;28;20049;-52
2022/04/29 04:58:18;;;;;;;13.55;10.55;;;;;;;11.81;64.62;95176.47;4142876;28;20517;-53
2022/04/29 05:00:20;;;;;;;16.30;10.60;;;;;;;11.79;65.18;95179.25;4143060;28;20497;-52
2022/04/29 05:02:21;;;;;;;17.38;11.68;;;;;;;11.64;65.26;95180.81;4142959;28;20049;-53
2022/04/29 05:04:24;;;;;;;17.77;11.68;;;;;;;11.65;65.43;95174.56;4142054;28;20209;-51
2022/04/29 05:06:25;;;;;;;16.10;10.90;;;;;;;11.65;65.38;95182.44;4142307;28;20061;-49
2022/04/29 05:08:27;;;;;;;14.63;10.82;;;;;;;11.44;65.85;95175.75;4135631;28;20054;-51
2022/04/29 05:10:29;;;;;;;18.65;11.70;;;;;;;11.65;65.39;95183.25;4142498;28;20502;-50
2022/04/29 05:12:30;;;;;;;17.35;10.63;;;;;;;11.79;65.06;95168.75;4142839;28;20471;-50
2022/04/29 05:14:34;;;;;;;14.77;10.55;;;;;;;11.93;64.77;95172.63;4142557;28;20130;-50
2022/04/29 05:16:35;;;;;;;18.08;11.85;;;;;;;11.94;64.33;95181.31;4142819;28;20364;-58
2022/04/29 05:18:37;;;;;;;21.52;10.77;;;;;;;12.07;64.01;95169.44;4142614;28;20574;-54
2022/04/29 05:20:41;;;;;;;16.83;11.32;;;;;;;11.99;64.11;95171.19;4142709;28;20089;-52
2022/04/29 05:22:45;;;;;;;16.92;11.23;;;;;;;11.95;64.23;95173.28;4142804;28;20447;-53
2022/04/29 05:24:47;;;;;;;;;;;;;;;11.90;64.61;95174.75;4140616;28;20122;-52
2022/04/29 05:26:49;;;;;;;14.95;10.80;;;;;;;11.92;64.43;95172.81;4142788;28;20387;-54
2022/04/29 05:28:51;;;;;;;18.55;12.40;;;;;;;12.04;64.35;95177.59;4143012;28;20459;-52
2022/04/29 05:30:52;;;;;;;17.35;11.18;;;;;;;12.06;64.24;95180.91;4142553;28;20068;-50
2022/04/29 05:32:54;;;;;;;17.30;10.38;;;;;;;12.15;64.32;95178.31;4142358;28;20053;-51
2022/04/29 05:34:56;;;;;;;15.70;10.88;;;;;;;12.31;63.75;95175.78;4142498;28;20054;-52
2022/04/29 05:36:59;;;;;;;17.38;12.05;;;;;;;12.41;63.33;95165.97;4142509;28;20058;-52
2022/04/29 05:43:42;;;;;;;15.93;10.52;;;;;;;12.47;62.95;95173.19;4142437;28;20449;-52
2022/04/29 05:45:44;;;;;;;15.00;10.50;;;;;;;12.46;62.95;95170.75;4142533;28;20560;-52
2022/04/29 05:47:46;;;;;;;18.70;10.73;;;;;;;12.44;63.16;95177.97;4137039;28;20061;-53
2022/04/29 05:49:47;;;;;;;15.43;10.93;;;;;;;12.52;62.75;95178.00;4125997;28;20054;-52
2022/04/29 05:51:49;;;;;;;16.25;10.48;;;;;;;12.53;62.82;95176.19;4126327;28;20273;-53
2022/04/29 05:53:51;;;;;;;16.38;11.63;;;;;;;12.65;62.71;95178.38;4129680;28;20053;-51
2022/04/29 05:55:53;;;;;;;15.10;10.48;;;;;;;12.76;62.25;95179.06;4142275;28;20061;-54
2022/04/29 05:57:55;;;;;;;14.85;10.23;;;;;;;12.78;62.28;95177.09;4142421;28;20248;-52
2022/04/29 05:59:58;;;;;;;14.18;9.73;;;;;;;12.85;61.91;95178.09;4142526;28;20419;-53
2022/04/29 06:02:00;;;;;;;13.20;9.90;;;;;;;12.79;61.80;95181.34;4142480;28;20050;-52
2022/04/29 06:04:02;;;;;;;14.75;10.80;;;;;;;12.81;62.30;95188.09;4141726;28;20297;-53
2022/04/29 06:06:04;;;;;;;14.10;10.18;;;;;;;12.79;61.97;95197.13;4142189;28;20124;-53
2022/04/29 06:08:06;;;;;;;13.10;9.43;;;;;;;12.70;62.10;95191.84;4141106;28;20061;-54
2022/04/29 06:10:09;;;;;;;13.02;10.05;;;;;;;12.75;61.48;95204.50;4138602;28;20431;-55
2022/04/29 06:12:11;;;;;;;14.07;9.68;;;;;;;12.70;62.08;95197.09;4142493;28;20549;-53
2022/04/29 06:14:13;;;;;;;13.75;10.02;;;;;;;12.72;61.98;95204.00;4142343;28;20057;-51
2022/04/29 06:16:15;;;;;;;14.55;9.60;;;;;;;12.73;62.23;95209.09;4142062;28;20077;-51
2022/04/29 06:18:16;;;;;;;14.38;9.77;;;;;;;12.73;61.99;95200.38;4141827;28;20054;-54
2022/04/29 06:20:18;;;;;;;13.57;10.30;;;;;;;12.83;62.06;95203.72;4142339;28;20050;-52
2022/04/29 06:22:20;;;;;;;18.65;10.60;;;;;;;12.94;61.63;95202.59;4127075;28;20105;-50
2022/04/29 06:24:22;;;;;;;16.05;10.77;;;;;;;13.00;61.53;95201.94;4124361;28;20058;-51
2022/04/29 06:26:24;;;;;;;15.50;9.70;;;;;;;13.09;60.91;95211.50;4125889;28;20138;-54
2022/04/29 06:28:26;;;;;;;15.80;9.68;;;;;;;13.18;60.80;95205.25;4126182;28;20120;-55
2022/04/29 06:30:28;;;;;;;12.00;9.02;;;;;;;13.29;60.22;95204.13;4125962;28;20058;-52
2022/04/29 06:32:53;;;;;;;11.70;9.30;;;;;;;13.39;59.79;95206.63;4125791;28;20069;-52
2022/04/29 06:34:55;;;;;;;14.70;9.43;;;;;;;13.29;60.27;95207.63;4136191;28;20123;-53
2022/04/29 06:36:56;;;;;;;16.15;10.85;;;;;;;13.32;60.17;95209.91;4142118;28;20053;-50
2022/04/29 06:38:58;;;;;;;13.27;9.60;;;;;;;13.36;60.16;95207.78;4142982;28;20046;-49
2022/04/29 06:41:00;;;;;;;12.73;8.80;;;;;;;13.59;59.72;95204.47;4145199;28;20410;-53
2022/04/29 06:43:02;;;;;;;14.60;10.82;;;;;;;13.65;59.43;95206.47;4145030;28;20057;-53
2022/04/29 06:45:05;;;;;;;12.45;8.73;;;;;;;13.69;58.95;95200.69;4145134;28;20383;-53
2022/04/29 06:47:06;;;;;;;16.42;9.90;;;;;;;13.56;59.51;95207.47;4144729;28;20045;-50
2022/04/29 06:49:09;;;;;;;13.73;9.82;;;;;;;13.59;59.40;95201.84;4144544;28;20088;-53
2022/04/29 06:51:10;;;;;;;18.27;10.68;;;;;;;12.88;61.44;95201.41;4144809;28;20127;-55
2022/04/29 06:53:16;;;;;;;15.48;10.60;;;;;;;12.89;61.59;95200.44;4143368;28;20054;-52
2022/04/29 06:55:18;;;;;;;14.60;10.63;;;;;;;13.04;61.06;95198.81;4145045;28;20065;-53
2022/04/29 06:57:20;;;;;;;12.85;9.70;;;;;;;13.29;60.85;95193.63;4144625;28;20219;-54
2022/04/29 06:59:22;;;;;;;14.15;9.98;;;;;;;13.51;59.80;95190.34;4145123;28;20078;-56
2022/04/29 07:01:24;;;;;;;14.00;10.25;;;;;;;13.15;60.85;95192.44;4144694;28;20402;-51
2022/04/29 07:03:26;;;;;;;15.23;9.85;;;;;;;12.46;62.54;95197.84;4144418;28;20119;-52
2022/04/29 07:05:28;;;;;;;12.13;9.52;;;;;;;12.27;62.97;95198.91;4144338;28;20374;-54
2022/04/29 07:07:29;;;;;;;22.95;11.35;;;;;;;12.50;63.02;95193.91;4143149;28;20542;-53
2022/04/29 07:09:31;;;;;;;20.33;11.52;;;;;;;12.77;62.16;95194.66;4142178;28;20065;-50
2022/04/29 07:11:55;;;;;;;20.17;13.25;;;;;;;13.17;60.95;95192.28;4127600;28;20050;-49
2022/04/29 07:13:57;;;;;;;15.85;9.70;;;;;;;13.47;59.63;95188.22;4128099;28;20082;-53
2022/04/29 07:15:59;;;;;;;15.48;10.40;;;;;;;13.72;58.86;95186.38;4127920;28;20134;-52
2022/04/29 07:18:01;;;;;;;13.10;9.65;;;;;;;13.71;58.54;95188.19;4128119;28;20050;-55
2022/04/29 07:20:05;;;;;;;10.82;8.85;;;;;;;13.89;57.70;95184.53;4128338;28;20510;-49
2022/04/29 07:22:07;;;;;;;14.60;10.50;;;;;;;14.07;57.74;95179.09;4128033;28;20050;-54
2022/04/29 07:24:09;;;;;;;17.48;9.13;;;;;;;14.06;56.82;95187.97;4127211;28;20065;-51
2022/04/29 07:26:10;;;;;;;12.75;9.60;;;;;;;14.19;56.61;95177.72;4128573;28;20464;-53
2022/04/29 07:28:12;;;;;;;10.68;8.40;;;;;;;14.20;56.15;95186.47;4128212;28;20113;-51
2022/04/29 07:30:14;;;;;;;11.52;8.80;;;;;;;13.70;56.88;95185.72;4127899;28;20706;-53
2022/04/29 07:32:16;;;;;;;10.90;8.57;;;;;;;13.32;57.66;95188.84;4128332;28;20054;-52
2022/04/29 07:34:17;;;;;;;11.10;8.75;;;;;;;13.28;57.39;95184.06;4141008;28;20156;-52
2022/04/29 07:41:45;;;;;;;17.13;8.05;;;;;;;14.06;55.05;95180.88;4144263;28;20216;-53
2022/04/29 07:43:22;;;;;;;11.43;7.88;;;;;;;14.29;54.50;95173.06;4143633;28;20053;-54
2022/04/29 07:45:24;;;;;;;12.25;7.70;;;;;;;14.38;54.17;95180.94;4143959;28;20135;-52
2022/04/29 07:47:26;;;;;;;11.32;8.02;;;;;;;14.40;53.48;95173.69;4134355;28;20054;-56
2022/04/29 07:49:27;;;;;;;14.65;8.30;;;;;;;14.16;54.03;95180.69;4126883;28;20176;-54
2022/04/29 07:51:29;;;;;;;8.82;7.32;;;;;;;13.63;55.89;95180.28;4127880;28;20404;-53
2022/04/29 07:53:31;;;;;;;14.95;8.63;;;;;;;13.52;56.56;95183.25;4128819;28;20093;-52
2022/04/29 07:55:33;;;;;;;14.13;8.88;;;;;;;13.66;56.20;95185.25;4140888;28;20148;-53
2022/04/29 07:57:34;;;;;;;12.20;8.38;;;;;;;13.77;55.65;95183.25;4135336;28;20046;-53
2022/04/29 07:59:43;;;;;;;10.95;7.65;;;;;;;13.87;55.55;95175.97;4143992;28;20057;-51
2022/04/29 08:01:45;;;;;;;9.45;7.25;;;;;;;14.01;54.92;95179.75;4144070;28;20203;-53
2022/04/29 08:03:47;;;;;;;11.63;7.60;;;;;;;14.10;55.25;95176.09;4143746;28;20097;-52
2022/04/29 08:05:52;;;;;;;12.98;7.95;;;;;;;14.13;54.79;95175.75;4143945;28;20084;-52
2022/04/29 08:07:59;;;;;;;12.73;8.10;;;;;;;14.28;55.06;95173.22;4142668;28;20090;-52
2022/04/29 08:10:01;;;;;;;10.05;7.70;;;;;;;14.38;53.93;95179.13;4143657;28;20076;-54
2022/04/29 08:12:05;;;;;;;12.48;9.57;;;;;;;14.20;54.75;95170.66;4139516;28;20060;-52
2022/04/29 08:14:07;;;;;;;18.45;8.48;;;;;;;14.24;54.84;95174.56;4127362;28;20423;-53
2022/04/29 08:16:32;;;;;;;13.13;9.15;;;;;;;14.35;53.79;95179.47;4127246;28;20050;-53
2022/04/29 08:18:33;;;;;;;13.38;7.90;;;;;;;14.43;53.64;95170.72;4127220;28;20050;-53
2022/04/29 08:20:35;;;;;;;12.57;9.48;;;;;;;14.55;53.26;95169.38;4128190;28;20055;-52
2022/04/29 08:22:37;;;;;;;13.48;8.35;;;;;;;14.53;53.35;95169.50;4143751;28;20057;-49
2022/04/29 08:24:39;;;;;;;13.20;8.65;;;;;;;14.72;52.76;95162.22;4142194;28;20054;-53
2022/04/29 08:26:41;;;;;;;11.18;6.97;;;;;;;14.77;52.14;95166.97;4143604;28;20050;-55
2022/04/29 08:28:43;;;;;;;15.88;11.13;;;;;;;14.70;52.29;95167.66;4143661;28;20413;-53
2022/04/29 08:30:45;;;;;;;13.57;8.80;;;;;;;14.49;52.58;95170.84;4143576;28;20244;-52
2022/04/29 08:32:53;;;;;;;11.02;7.97;;;;;;;14.32;52.23;95164.81;4142567;28;20056;-49
2022/04/29 08:34:55;;;;;;;8.80;6.45;;;;;;;14.50;51.89;95171.69;4143796;28;20421;-52
2022/04/29 08:36:57;;;;;;;8.85;6.43;;;;;;;14.59;51.02;95168.03;4143662;28;20629;-54
2022/04/29 08:39:00;;;;;;;9.68;6.82;;;;;;;14.69;50.45;95165.19;4142557;28;20049;-49
2022/04/29 08:41:02;;;;;;;8.65;6.57;;;;;;;14.05;51.20;95179.25;4143215;28;20112;-53
2022/04/29 08:43:04;;;;;;;8.93;6.75;;;;;;;13.90;52.28;95163.31;4143112;28;20061;-49
2022/04/29 08:45:12;;;;;;;11.82;6.28;;;;;;;14.03;52.67;95164.59;4143170;28;20564;-53
2022/04/29 08:47:15;;;;;;;8.90;6.85;;;;;;;14.07;51.84;95156.19;4142031;28;20060;-50
2022/04/29 08:49:17;;;;;;;12.30;7.20;;;;;;;14.08;51.18;95163.09;4141153;28;20054;-52
2022/04/29 08:51:19;;;;;;;11.00;7.68;;;;;;;13.90;51.24;95165.94;4141486;28;20072;-54
2022/04/29 08:53:21;;;;;;;10.57;6.53;;;;;;;14.02;51.29;95158.50;4126094;28;20054;-54
2022/04/29 09:00:05;;;;;;;9.43;6.00;;;;;;;15.03;48.77;95145.53;4141519;28;20054;-50
2022/04/29 09:02:09;;;;;;;9.93;6.50;;;;;;;15.22;48.66;95144.25;4142808;28;20066;-54
2022/04/29 09:04:11;;;;;;;11.05;6.30;;;;;;;15.01;48.35;95140.41;4142483;28;20559;-54
2022/04/29 09:06:22;;;;;;;7.25;5.93;;;;;;;15.04;48.97;95142.72;4142665;28;20541;-54
2022/04/29 09:08:24;;;;;;;10.43;6.25;;;;;;;14.98;48.97;95138.16;4141264;28;20422;-52
2022/04/29 09:10:34;;;;;;;7.55;5.50;;;;;;;15.27;48.06;95134.81;4142568;28;20057;-54
2022/04/29 09:12:35;;;;;;;8.35;5.78;;;;;;;15.36;47.96;95132.91;4136996;28;20120;-56
2022/04/29 09:14:37;;;;;;;7.43;6.40;;;;;;;15.27;48.32;95137.44;4128268;28;20116;-55
2022/04/29 09:16:45;;;;;;;7.13;6.03;;;;;;;15.39;48.34;95135.19;4126471;28;20046;-54
2022/04/29 09:18:49;;;;;;;8.90;5.85;;;;;;;15.32;47.95;95134.28;4126263;28;20054;-54
2022/04/29 09:20:54;;;;;;;7.68;5.80;;;;;;;15.25;47.88;95138.59;4129755;28;20041;-56
2022/04/29 09:22:56;;;;;;;9.98;6.32;;;;;;;15.20;48.25;95136.50;4141709;28;20153;-54
2022/04/29 09:25:03;;;;;;;8.63;5.78;;;;;;;15.29;48.43;95134.63;4142778;28;20113;-52
2022/04/29 09:27:05;;;;;;;7.30;5.45;;;;;;;15.51;48.10;95127.69;4142264;28;20045;-53
2022/04/29 09:29:19;;;;;;;9.27;6.50;;;;;;;15.79;47.43;95130.56;4141481;28;20057;-49
2022/04/29 09:31:20;;;;;;;8.73;6.80;;;;;;;15.94;46.90;95133.25;4142839;28;20064;-56
2022/04/29 09:33:55;;;;;;;7.05;5.47;;;;;;;15.94;46.13;95127.94;4142416;28;20089;-52
2022/04/29 09:35:57;;;;;;;6.32;5.50;;;;;;;16.05;46.25;95124.03;4142433;28;20046;-54
2022/04/29 09:40:22;;;;;;;7.35;5.13;;;;;;;16.32;45.41;95126.00;4142431;28;20046;-51
2022/04/29 09:42:39;;;;;;;10.75;6.70;;;;;;;16.37;45.16;95126.28;4142402;28;20099;-51
2022/04/29 09:44:41;;;;;;;9.75;6.20;;;;;;;16.34;45.20;95131.13;4142262;28;20050;-55
2022/04/29 09:46:43;;;;;;;10.50;6.70;;;;;;;15.73;45.01;95137.38;4142604;28;20062;-55
2022/04/29 09:48:58;;;;;;;8.00;6.53;;;;;;;15.27;46.86;95139.25;4141907;28;20053;-55
2022/04/29 09:50:59;;;;;;;7.28;5.30;;;;;;;15.38;46.17;95128.28;4141435;28;20471;-54
2022/04/29 09:53:15;;;;;;;8.68;5.38;;;;;;;15.62;45.45;95137.00;4141021;28;20789;-52